Bluffton, IN

07:04 PM EST ye 22 December, 2014 (GMT -0500)
Borne Farms, Preble, IN | Change Station
CLOSE
Current Station
Personal Weather Stations
Location: Decatur, IN
Elevation: 814 ft
Nearby Weather Stations

Elev 814 ft 40.83 °N, 85.02 °W | Updated 9 minutes ago

Pluvo
Pluvo
37.9 °F
Feels Like 33 °F
N
7.0
Vento Variema Vento from ENE
Gusts 10.0 mph

Hodie
High -- | Low -- °F
--% Chance of Precip.
Yesterday
High -- | Low -- °F
Precip. -- in
8:01 AM 5:17 PM
New, 1% visible
Presuro 29.84 in
Videbleso 5.0 milii
Clouds Dispersita Nubi 3000 ft
Nubizita 5000 ft
Ventokoldeso 33 °F
Rosifopunto 36 °F
Humideso 91%
Rainfall 0.00 in
Snow Depth Not available.
UV 0 out of 12
Pollen .10 out of 12
Air Quality Not available.
Flu Activity Not available.
METAR KFWA 222354Z 08008KT 5SM -RA BR SCT030 OVC050 03/01 A2981 RMK AO2 SLP104 RAB08 P0000 60000 T00280011 10033 20017 56012

More Conditions Fewer Conditions

Presuro 29.84 in
Videbleso 5.0 milii
Clouds Dispersita Nubi 3000 ft
Nubizita 5000 ft
Ventokoldeso 33 °F
Rosifopunto 36 °F
Humideso 91%
Rainfall 0.00 in
Snow Depth Not available.
UV 0 out of 12
Pollen .10 out of 12
Air Quality Not available.
Flu Activity Not available.
METAR KFWA 222354Z 08008KT 5SM -RA BR SCT030 OVC050 03/01 A2981 RMK AO2 SLP104 RAB08 P0000 60000 T00280011 10033 20017 56012

More Conditions Fewer Conditions

10-Day Weather Forecast

Almanac

Astronomy

Dec. 22, 2014 Rise Set
Actual Time
Civil Twilight
Nautical Twilight
Astronomical Twilight
Moon
Length Of Visible Light
Length of Day
Tomorrow will be .
, % of the Moon is Illuminated

Today's Extremes

State Highs State Lows

Community

WunderPhotos

Upload Photos

1,779,732 photos uploaded!

WunderBlogs® & News

Nearby

Air Quality

  Air Quality AQ Index Pollutant
Not available.

Snow Depth

Station Depth Elevation

Earthquake Activity

City Distance Mag. Time & Date
Minimum magnitude displayed is 2.5.

Coastal Water Temperatures

Loko Temperaturo

Nearby Weather Stations